sensor_id;sensor_type;location;lat;lon;timestamp;pressure;altitude;pressure_sealevel;temperature;humidity
76746;BME280;65671;49.976;20.038;2023-02-17T00:02:03;98558.59;;;2.07;74.83
76746;BME280;65671;49.976;20.038;2023-02-17T00:04:30;98565.69;;;2.03;74.97
76746;BME280;65671;49.976;20.038;2023-02-17T00:06:56;98563.06;;;1.94;75.60
76746;BME280;65671;49.976;20.038;2023-02-17T00:09:23;98564.31;;;1.97;74.76
76746;BME280;65671;49.976;20.038;2023-02-17T00:11:49;98566.03;;;1.93;75.08
76746;BME280;65671;49.976;20.038;2023-02-17T00:14:15;98563.84;;;1.95;74.30
76746;BME280;65671;49.976;20.038;2023-02-17T00:16:41;98560.72;;;1.84;75.11
76746;BME280;65671;49.976;20.038;2023-02-17T00:19:09;98562.47;;;1.89;75.39
76746;BME280;65671;49.976;20.038;2023-02-17T00:21:51;98556.00;;;1.90;75.52
76746;BME280;65671;49.976;20.038;2023-02-17T00:24:18;98563.56;;;1.88;75.08
76746;BME280;65671;49.976;20.038;2023-02-17T00:26:44;98562.72;;;1.96;74.71
76746;BME280;65671;49.976;20.038;2023-02-17T00:29:09;98551.06;;;2.09;74.37
76746;BME280;65671;49.976;20.038;2023-02-17T00:31:35;98557.63;;;2.11;73.99
76746;BME280;65671;49.976;20.038;2023-02-17T00:34:00;98551.84;;;2.09;74.47
76746;BME280;65671;49.976;20.038;2023-02-17T00:36:26;98549.97;;;2.01;74.44
76746;BME280;65671;49.976;20.038;2023-02-17T00:38:54;98552.59;;;2.18;73.52
76746;BME280;65671;49.976;20.038;2023-02-17T00:41:24;98548.97;;;2.14;73.92
76746;BME280;65671;49.976;20.038;2023-02-17T00:43:50;98550.06;;;2.13;73.77
76746;BME280;65671;49.976;20.038;2023-02-17T00:46:17;98544.91;;;2.08;75.12
76746;BME280;65671;49.976;20.038;2023-02-17T00:48:42;98539.25;;;2.10;73.92
76746;BME280;65671;49.976;20.038;2023-02-17T00:51:08;98546.50;;;2.09;74.30
76746;BME280;65671;49.976;20.038;2023-02-17T00:53:34;98533.91;;;2.10;74.32
76746;BME280;65671;49.976;20.038;2023-02-17T00:56:01;98531.38;;;2.13;74.41
76746;BME280;65671;49.976;20.038;2023-02-17T00:58:26;98524.00;;;2.10;74.45
76746;BME280;65671;49.976;20.038;2023-02-17T01:00:55;98521.66;;;2.09;74.72
76746;BME280;65671;49.976;20.038;2023-02-17T01:03:20;98527.28;;;2.16;74.50
76746;BME280;65671;49.976;20.038;2023-02-17T01:05:47;98512.91;;;2.29;73.44
76746;BME280;65671;49.976;20.038;2023-02-17T01:08:14;98510.44;;;2.24;74.41
76746;BME280;65671;49.976;20.038;2023-02-17T01:10:42;98515.72;;;2.33;73.54
76746;BME280;65671;49.976;20.038;2023-02-17T01:13:10;98500.84;;;2.44;72.42
76746;BME280;65671;49.976;20.038;2023-02-17T01:15:38;98511.19;;;2.54;73.12
76746;BME280;65671;49.976;20.038;2023-02-17T01:18:04;98504.84;;;2.58;72.76
76746;BME280;65671;49.976;20.038;2023-02-17T01:20:33;98493.50;;;2.61;71.83
76746;BME280;65671;49.976;20.038;2023-02-17T01:22:59;98499.63;;;2.62;72.29
76746;BME280;65671;49.976;20.038;2023-02-17T01:25:25;98493.03;;;2.59;72.59
76746;BME280;65671;49.976;20.038;2023-02-17T01:27:50;98485.91;;;2.63;71.89
76746;BME280;65671;49.976;20.038;2023-02-17T01:30:16;98477.44;;;2.61;72.22
76746;BME280;65671;49.976;20.038;2023-02-17T01:32:43;98473.03;;;2.65;71.43
76746;BME280;65671;49.976;20.038;2023-02-17T01:35:08;98472.59;;;2.75;71.36
76746;BME280;65671;49.976;20.038;2023-02-17T01:37:34;98463.34;;;2.73;71.38
76746;BME280;65671;49.976;20.038;2023-02-17T01:40:00;98456.63;;;2.88;70.97
76746;BME280;65671;49.976;20.038;2023-02-17T01:42:26;98465.72;;;2.87;70.72
76746;BME280;65671;49.976;20.038;2023-02-17T01:45:30;98460.19;;;2.92;70.68
76746;BME280;65671;49.976;20.038;2023-02-17T01:48:04;98455.25;;;2.81;71.44
76746;BME280;65671;49.976;20.038;2023-02-17T01:50:39;98447.63;;;2.92;70.28
76746;BME280;65671;49.976;20.038;2023-02-17T01:53:06;98430.44;;;2.93;70.61
76746;BME280;65671;49.976;20.038;2023-02-17T01:55:34;98432.94;;;3.10;69.57
76746;BME280;65671;49.976;20.038;2023-02-17T01:58:02;98436.59;;;3.06;69.84
76746;BME280;65671;49.976;20.038;2023-02-17T02:00:31;98441.13;;;2.93;69.99
76746;BME280;65671;49.976;20.038;2023-02-17T02:02:59;98437.75;;;2.84;70.12
76746;BME280;65671;49.976;20.038;2023-02-17T02:05:26;98438.34;;;2.90;70.09
76746;BME280;65671;49.976;20.038;2023-02-17T02:07:53;98437.00;;;2.96;70.00
76746;BME280;65671;49.976;20.038;2023-02-17T02:10:18;98436.34;;;2.99;70.22
76746;BME280;65671;49.976;20.038;2023-02-17T02:12:44;98430.16;;;3.07;69.36
76746;BME280;65671;49.976;20.038;2023-02-17T02:15:16;98435.28;;;3.12;69.90
76746;BME280;65671;49.976;20.038;2023-02-17T02:20:56;98439.34;;;3.30;68.75
76746;BME280;65671;49.976;20.038;2023-02-17T02:33:57;98423.47;;;3.13;69.43
76746;BME280;65671;49.976;20.038;2023-02-17T02:36:37;98432.34;;;3.05;70.08
76746;BME280;65671;49.976;20.038;2023-02-17T02:39:14;98435.44;;;2.83;71.36
76746;BME280;65671;49.976;20.038;2023-02-17T02:41:48;98439.22;;;2.81;71.26
76746;BME280;65671;49.976;20.038;2023-02-17T02:44:18;98444.31;;;2.74;71.12
76746;BME280;65671;49.976;20.038;2023-02-17T02:46:54;98442.31;;;2.71;71.83
76746;BME280;65671;49.976;20.038;2023-02-17T02:49:19;98446.59;;;2.64;72.09
76746;BME280;65671;49.976;20.038;2023-02-17T02:54:26;98448.75;;;2.70;72.17
76746;BME280;65671;49.976;20.038;2023-02-17T03:02:28;98451.28;;;2.67;72.28
76746;BME280;65671;49.976;20.038;2023-02-17T03:08:03;98441.38;;;2.67;72.37
76746;BME280;65671;49.976;20.038;2023-02-17T03:10:29;98428.63;;;2.52;73.01
76746;BME280;65671;49.976;20.038;2023-02-17T03:12:55;98439.19;;;2.49;73.10
76746;BME280;65671;49.976;20.038;2023-02-17T03:15:28;98440.75;;;2.50;73.54
76746;BME280;65671;49.976;20.038;2023-02-17T03:17:59;98438.94;;;2.42;73.78
76746;BME280;65671;49.976;20.038;2023-02-17T03:20:26;98438.09;;;2.29;74.05
76746;BME280;65671;49.976;20.038;2023-02-17T03:22:52;98438.16;;;2.20;73.43
76746;BME280;65671;49.976;20.038;2023-02-17T03:25:18;98442.91;;;2.15;74.24
76746;BME280;65671;49.976;20.038;2023-02-17T03:27:44;98435.84;;;2.10;74.29
76746;BME280;65671;49.976;20.038;2023-02-17T03:30:10;98428.75;;;1.94;74.84
76746;BME280;65671;49.976;20.038;2023-02-17T03:32:35;98429.97;;;1.76;75.53
76746;BME280;65671;49.976;20.038;2023-02-17T03:35:01;98431.38;;;1.73;76.84
76746;BME280;65671;49.976;20.038;2023-02-17T03:37:27;98430.56;;;1.81;76.11
76746;BME280;65671;49.976;20.038;2023-02-17T03:39:52;98428.22;;;1.80;76.21
76746;BME280;65671;49.976;20.038;2023-02-17T03:42:18;98422.25;;;1.83;75.87
76746;BME280;65671;49.976;20.038;2023-02-17T03:44:43;98415.97;;;1.79;76.37
76746;BME280;65671;49.976;20.038;2023-02-17T03:47:09;98417.22;;;2.22;73.45
76746;BME280;65671;49.976;20.038;2023-02-17T03:49:35;98416.56;;;2.46;73.14
76746;BME280;65671;49.976;20.038;2023-02-17T03:52:00;98413.97;;;2.38;73.42
76746;BME280;65671;49.976;20.038;2023-02-17T03:54:26;98413.78;;;2.75;70.92
76746;BME280;65671;49.976;20.038;2023-02-17T03:56:51;98408.13;;;2.77;71.81
76746;BME280;65671;49.976;20.038;2023-02-17T03:59:20;98405.88;;;2.46;73.12
76746;BME280;65671;49.976;20.038;2023-02-17T04:01:45;98409.63;;;2.33;73.31
76746;BME280;65671;49.976;20.038;2023-02-17T04:04:11;98420.03;;;2.26;73.71
76746;BME280;65671;49.976;20.038;2023-02-17T04:06:36;98403.88;;;2.22;74.03
76746;BME280;65671;49.976;20.038;2023-02-17T04:09:03;98413.06;;;2.13;75.05
76746;BME280;65671;49.976;20.038;2023-02-17T04:11:29;98422.97;;;1.92;75.02
76746;BME280;65671;49.976;20.038;2023-02-17T04:13:54;98411.75;;;1.98;75.05
76746;BME280;65671;49.976;20.038;2023-02-17T04:16:20;98410.88;;;2.15;73.93
76746;BME280;65671;49.976;20.038;2023-02-17T04:18:45;98406.31;;;2.15;74.29
76746;BME280;65671;49.976;20.038;2023-02-17T04:21:11;98410.78;;;2.23;74.24
76746;BME280;65671;49.976;20.038;2023-02-17T04:23:37;98399.63;;;2.21;74.02
76746;BME280;65671;49.976;20.038;2023-02-17T04:26:05;98405.38;;;2.32;73.55
76746;BME280;65671;49.976;20.038;2023-02-17T04:28:30;98401.06;;;2.40;73.05
76746;BME280;65671;49.976;20.038;2023-02-17T04:30:56;98406.47;;;2.52;72.51
76746;BME280;65671;49.976;20.038;2023-02-17T04:33:22;98390.94;;;2.45;72.66
76746;BME280;65671;49.976;20.038;2023-02-17T04:35:47;98401.03;;;2.60;72.41
76746;BME280;65671;49.976;20.038;2023-02-17T04:38:13;98403.38;;;2.62;71.92
76746;BME280;65671;49.976;20.038;2023-02-17T04:40:39;98404.88;;;2.83;70.94
76746;BME280;65671;49.976;20.038;2023-02-17T04:43:05;98398.00;;;2.83;71.17
76746;BME280;65671;49.976;20.038;2023-02-17T04:45:30;98394.69;;;2.98;70.87
76746;BME280;65671;49.976;20.038;2023-02-17T04:47:56;98395.69;;;3.05;69.88
76746;BME280;65671;49.976;20.038;2023-02-17T04:50:22;98392.69;;;3.19;69.72
76746;BME280;65671;49.976;20.038;2023-02-17T04:52:47;98386.91;;;3.29;68.63
76746;BME280;65671;49.976;20.038;2023-02-17T04:55:13;98385.81;;;3.30;68.69
76746;BME280;65671;49.976;20.038;2023-02-17T04:57:38;98385.59;;;3.47;67.80
76746;BME280;65671;49.976;20.038;2023-02-17T05:00:05;98390.72;;;3.52;67.67
76746;BME280;65671;49.976;20.038;2023-02-17T05:02:31;98385.34;;;3.52;68.08
76746;BME280;65671;49.976;20.038;2023-02-17T05:04:57;98369.19;;;3.61;67.23
76746;BME280;65671;49.976;20.038;2023-02-17T05:07:23;98385.25;;;3.61;67.50
76746;BME280;65671;49.976;20.038;2023-02-17T05:09:48;98394.28;;;3.56;67.99
76746;BME280;65671;49.976;20.038;2023-02-17T05:12:14;98386.38;;;3.48;68.09
76746;BME280;65671;49.976;20.038;2023-02-17T05:14:40;98397.75;;;3.45;67.79
76746;BME280;65671;49.976;20.038;2023-02-17T05:17:05;98386.69;;;3.34;68.71
76746;BME280;65671;49.976;20.038;2023-02-17T05:19:31;98391.16;;;3.30;68.75
76746;BME280;65671;49.976;20.038;2023-02-17T05:21:56;98388.50;;;3.42;68.79
76746;BME280;65671;49.976;20.038;2023-02-17T05:24:22;98378.66;;;3.46;68.38
76746;BME280;65671;49.976;20.038;2023-02-17T05:26:47;98373.78;;;3.48;68.30
76746;BME280;65671;49.976;20.038;2023-02-17T05:29:13;98384.25;;;3.53;67.91
76746;BME280;65671;49.976;20.038;2023-02-17T05:31:38;98376.78;;;3.59;67.83
76746;BME280;65671;49.976;20.038;2023-02-17T05:34:04;98371.97;;;3.64;67.62
76746;BME280;65671;49.976;20.038;2023-02-17T05:36:30;98381.56;;;3.65;67.16
76746;BME280;65671;49.976;20.038;2023-02-17T05:38:55;98382.00;;;3.67;67.42
76746;BME280;65671;49.976;20.038;2023-02-17T05:41:21;98386.69;;;3.70;67.20
76746;BME280;65671;49.976;20.038;2023-02-17T05:43:47;98391.25;;;3.70;67.39
76746;BME280;65671;49.976;20.038;2023-02-17T05:46:13;98388.03;;;3.76;66.69
76746;BME280;65671;49.976;20.038;2023-02-17T05:48:39;98382.44;;;3.81;67.38
76746;BME280;65671;49.976;20.038;2023-02-17T05:51:05;98381.97;;;3.91;66.39
76746;BME280;65671;49.976;20.038;2023-02-17T05:53:31;98385.06;;;4.06;65.93
76746;BME280;65671;49.976;20.038;2023-02-17T05:55:57;98380.94;;;4.08;65.54
76746;BME280;65671;49.976;20.038;2023-02-17T05:58:23;98383.41;;;4.13;65.56
76746;BME280;65671;49.976;20.038;2023-02-17T06:00:48;98380.56;;;4.22;65.15
76746;BME280;65671;49.976;20.038;2023-02-17T06:03:14;98384.78;;;4.23;65.64
76746;BME280;65671;49.976;20.038;2023-02-17T06:05:40;98377.91;;;4.22;65.69
76746;BME280;65671;49.976;20.038;2023-02-17T06:08:07;98379.00;;;4.21;66.60
76746;BME280;65671;49.976;20.038;2023-02-17T06:10:33;98374.44;;;4.21;66.87
76746;BME280;65671;49.976;20.038;2023-02-17T06:12:58;98371.59;;;4.30;65.87
76746;BME280;65671;49.976;20.038;2023-02-17T06:15:24;98359.41;;;4.32;66.47
76746;BME280;65671;49.976;20.038;2023-02-17T06:17:50;98368.25;;;4.33;67.22
76746;BME280;65671;49.976;20.038;2023-02-17T06:20:15;98365.75;;;4.40;66.63
76746;BME280;65671;49.976;20.038;2023-02-17T06:22:41;98359.69;;;4.43;67.17
76746;BME280;65671;49.976;20.038;2023-02-17T06:25:08;98353.66;;;4.46;67.08
76746;BME280;65671;49.976;20.038;2023-02-17T06:27:33;98335.81;;;4.38;67.21
76746;BME280;65671;49.976;20.038;2023-02-17T06:29:59;98346.91;;;4.52;66.90
76746;BME280;65671;49.976;20.038;2023-02-17T06:32:25;98339.22;;;4.50;67.22
76746;BME280;65671;49.976;20.038;2023-02-17T06:34:50;98348.16;;;4.55;67.18
76746;BME280;65671;49.976;20.038;2023-02-17T06:37:16;98343.22;;;4.57;67.30
76746;BME280;65671;49.976;20.038;2023-02-17T06:39:41;98332.16;;;4.58;67.49
76746;BME280;65671;49.976;20.038;2023-02-17T06:42:07;98326.19;;;4.65;67.27
76746;BME280;65671;49.976;20.038;2023-02-17T06:44:32;98333.13;;;4.66;67.64
76746;BME280;65671;49.976;20.038;2023-02-17T06:46:58;98326.03;;;4.73;67.13
76746;BME280;65671;49.976;20.038;2023-02-17T06:49:24;98331.84;;;4.75;67.44
76746;BME280;65671;49.976;20.038;2023-02-17T06:51:50;98327.06;;;4.84;67.23
76746;BME280;65671;49.976;20.038;2023-02-17T06:54:16;98330.31;;;4.90;67.64
76746;BME280;65671;49.976;20.038;2023-02-17T06:56:42;98339.88;;;4.91;67.33
76746;BME280;65671;49.976;20.038;2023-02-17T06:59:07;98337.13;;;5.03;67.31
76746;BME280;65671;49.976;20.038;2023-02-17T07:01:33;98345.53;;;5.01;67.70
76746;BME280;65671;49.976;20.038;2023-02-17T07:03:58;98347.97;;;5.06;67.84
76746;BME280;65671;49.976;20.038;2023-02-17T07:06:25;98351.94;;;5.13;67.71
76746;BME280;65671;49.976;20.038;2023-02-17T07:08:52;98355.31;;;5.10;68.01
76746;BME280;65671;49.976;20.038;2023-02-17T07:11:18;98365.78;;;5.15;68.08
76746;BME280;65671;49.976;20.038;2023-02-17T07:13:44;98355.16;;;5.18;68.90
76746;BME280;65671;49.976;20.038;2023-02-17T07:16:12;98361.03;;;5.24;68.65
76746;BME280;65671;49.976;20.038;2023-02-17T07:18:38;98364.50;;;5.24;68.70
76746;BME280;65671;49.976;20.038;2023-02-17T07:21:05;98366.56;;;5.31;68.03
76746;BME280;65671;49.976;20.038;2023-02-17T07:23:31;98366.31;;;5.36;68.76
76746;BME280;65671;49.976;20.038;2023-02-17T07:26:09;98366.03;;;5.41;68.46
76746;BME280;65671;49.976;20.038;2023-02-17T07:28:37;98352.47;;;5.34;68.67
76746;BME280;65671;49.976;20.038;2023-02-17T07:31:12;98369.16;;;5.43;68.94
76746;BME280;65671;49.976;20.038;2023-02-17T07:33:38;98365.50;;;5.51;68.63
76746;BME280;65671;49.976;20.038;2023-02-17T07:36:09;98358.66;;;5.53;68.15
76746;BME280;65671;49.976;20.038;2023-02-17T07:38:36;98350.13;;;5.67;68.11
76746;BME280;65671;49.976;20.038;2023-02-17T07:41:06;98358.38;;;5.74;67.55
76746;BME280;65671;49.976;20.038;2023-02-17T07:43:32;98350.47;;;5.81;67.80
76746;BME280;65671;49.976;20.038;2023-02-17T07:45:58;98363.38;;;5.91;67.95
76746;BME280;65671;49.976;20.038;2023-02-17T07:48:24;98352.50;;;6.03;68.37
76746;BME280;65671;49.976;20.038;2023-02-17T07:50:49;98355.81;;;5.97;66.97
76746;BME280;65671;49.976;20.038;2023-02-17T07:53:15;98343.16;;;5.97;68.07
76746;BME280;65671;49.976;20.038;2023-02-17T07:55:40;98352.91;;;6.05;67.45
76746;BME280;65671;49.976;20.038;2023-02-17T07:58:06;98344.16;;;6.08;67.77
76746;BME280;65671;49.976;20.038;2023-02-17T08:00:32;98335.81;;;6.13;68.15
76746;BME280;65671;49.976;20.038;2023-02-17T08:02:57;98331.00;;;6.23;68.90
76746;BME280;65671;49.976;20.038;2023-02-17T08:05:26;98332.00;;;6.34;67.93
76746;BME280;65671;49.976;20.038;2023-02-17T08:07:51;98324.50;;;6.43;68.48
76746;BME280;65671;49.976;20.038;2023-02-17T08:10:38;98323.84;;;6.49;67.61
76746;BME280;65671;49.976;20.038;2023-02-17T08:13:24;98320.22;;;6.61;67.58
76746;BME280;65671;49.976;20.038;2023-02-17T08:15:51;98314.59;;;6.69;67.56
76746;BME280;65671;49.976;20.038;2023-02-17T08:18:16;98313.41;;;6.67;67.43
76746;BME280;65671;49.976;20.038;2023-02-17T08:20:42;98318.66;;;6.83;67.70
76746;BME280;65671;49.976;20.038;2023-02-17T08:23:08;98315.19;;;6.82;67.96
76746;BME280;65671;49.976;20.038;2023-02-17T08:25:34;98308.09;;;6.93;67.37
76746;BME280;65671;49.976;20.038;2023-02-17T08:28:02;98301.88;;;6.89;68.59
76746;BME280;65671;49.976;20.038;2023-02-17T08:30:28;98306.94;;;6.94;68.81
76746;BME280;65671;49.976;20.038;2023-02-17T08:32:53;98292.66;;;6.90;68.67
76746;BME280;65671;49.976;20.038;2023-02-17T08:35:19;98305.44;;;6.97;68.89
76746;BME280;65671;49.976;20.038;2023-02-17T08:37:50;98297.19;;;7.09;69.24
76746;BME280;65671;49.976;20.038;2023-02-17T08:40:17;98309.16;;;7.11;68.77
76746;BME280;65671;49.976;20.038;2023-02-17T08:42:43;98313.22;;;7.24;69.09
76746;BME280;65671;49.976;20.038;2023-02-17T08:45:09;98302.66;;;7.39;68.51
76746;BME280;65671;49.976;20.038;2023-02-17T08:47:37;98309.53;;;7.36;69.03
76746;BME280;65671;49.976;20.038;2023-02-17T08:50:05;98297.50;;;7.53;68.51
76746;BME280;65671;49.976;20.038;2023-02-17T08:52:31;98291.78;;;7.58;67.54
76746;BME280;65671;49.976;20.038;2023-02-17T08:54:56;98276.66;;;7.79;67.56
76746;BME280;65671;49.976;20.038;2023-02-17T08:57:22;98289.56;;;7.93;66.68
76746;BME280;65671;49.976;20.038;2023-02-17T08:59:48;98281.78;;;8.21;66.73
76746;BME280;65671;49.976;20.038;2023-02-17T09:02:15;98287.59;;;8.23;65.81
76746;BME280;65671;49.976;20.038;2023-02-17T09:04:40;98284.00;;;8.46;66.40
76746;BME280;65671;49.976;20.038;2023-02-17T09:07:12;98286.44;;;8.58;66.09
76746;BME280;65671;49.976;20.038;2023-02-17T09:09:38;98292.66;;;8.62;66.42
76746;BME280;65671;49.976;20.038;2023-02-17T09:12:04;98287.22;;;8.58;65.18
76746;BME280;65671;49.976;20.038;2023-02-17T09:14:30;98285.66;;;8.57;65.38
76746;BME280;65671;49.976;20.038;2023-02-17T09:16:56;98288.75;;;8.56;65.74
76746;BME280;65671;49.976;20.038;2023-02-17T09:19:23;98280.19;;;8.47;65.39
76746;BME280;65671;49.976;20.038;2023-02-17T09:21:49;98277.78;;;8.41;65.55
76746;BME280;65671;49.976;20.038;2023-02-17T09:24:16;98276.56;;;8.35;66.12
76746;BME280;65671;49.976;20.038;2023-02-17T09:26:42;98273.91;;;8.39;65.84
76746;BME280;65671;49.976;20.038;2023-02-17T09:29:08;98262.72;;;8.37;65.65
76746;BME280;65671;49.976;20.038;2023-02-17T09:31:35;98262.34;;;8.38;65.64
76746;BME280;65671;49.976;20.038;2023-02-17T09:34:02;98272.47;;;8.49;66.96
76746;BME280;65671;49.976;20.038;2023-02-17T09:36:31;98268.91;;;8.37;66.33
76746;BME280;65671;49.976;20.038;2023-02-17T09:38:57;98259.63;;;8.35;67.48
76746;BME280;65671;49.976;20.038;2023-02-17T09:41:27;98259.19;;;8.29;67.49
76746;BME280;65671;49.976;20.038;2023-02-17T09:43:56;98254.47;;;8.23;68.69
76746;BME280;65671;49.976;20.038;2023-02-17T09:46:35;98250.44;;;8.10;68.88
76746;BME280;65671;49.976;20.038;2023-02-17T09:49:15;98245.75;;;8.03;71.17
76746;BME280;65671;49.976;20.038;2023-02-17T09:51:45;98247.19;;;7.94;68.52
76746;BME280;65671;49.976;20.038;2023-02-17T09:54:22;98239.94;;;8.01;69.85
76746;BME280;65671;49.976;20.038;2023-02-17T09:56:52;98239.25;;;8.08;71.28
76746;BME280;65671;49.976;20.038;2023-02-17T10:05:00;98240.34;;;8.00;71.98
76746;BME280;65671;49.976;20.038;2023-02-17T10:07:32;98248.78;;;7.98;71.97
76746;BME280;65671;49.976;20.038;2023-02-17T10:10:13;98257.19;;;7.93;72.09
76746;BME280;65671;49.976;20.038;2023-02-17T10:12:45;98245.00;;;8.03;72.50
76746;BME280;65671;49.976;20.038;2023-02-17T10:15:16;98248.00;;;7.98;72.27
76746;BME280;65671;49.976;20.038;2023-02-17T10:20:39;98228.03;;;8.02;73.10
76746;BME280;65671;49.976;20.038;2023-02-17T10:23:10;98223.72;;;7.94;73.16
76746;BME280;65671;49.976;20.038;2023-02-17T10:28:24;98209.03;;;7.92;71.33
76746;BME280;65671;49.976;20.038;2023-02-17T10:31:02;98215.31;;;8.03;72.72
76746;BME280;65671;49.976;20.038;2023-02-17T10:36:42;98203.91;;;7.83;71.85
76746;BME280;65671;49.976;20.038;2023-02-17T10:42:03;98198.13;;;7.81;72.34
76746;BME280;65671;49.976;20.038;2023-02-17T10:44:30;98197.00;;;7.82;72.49
76746;BME280;65671;49.976;20.038;2023-02-17T10:46:58;98197.72;;;7.79;72.48
76746;BME280;65671;49.976;20.038;2023-02-17T10:49:37;98190.94;;;7.92;73.96
76746;BME280;65671;49.976;20.038;2023-02-17T10:52:31;98185.47;;;7.85;73.14
76746;BME280;65671;49.976;20.038;2023-02-17T10:55:03;98189.78;;;7.93;72.92
76746;BME280;65671;49.976;20.038;2023-02-17T10:57:34;98186.41;;;8.03;73.54
76746;BME280;65671;49.976;20.038;2023-02-17T11:00:02;98177.28;;;8.11;73.22
76746;BME280;65671;49.976;20.038;2023-02-17T11:02:40;98175.53;;;7.93;72.16
76746;BME280;65671;49.976;20.038;2023-02-17T11:05:07;98167.53;;;8.03;72.64
76746;BME280;65671;49.976;20.038;2023-02-17T11:07:40;98161.66;;;7.91;71.94
76746;BME280;65671;49.976;20.038;2023-02-17T11:10:26;98163.31;;;8.02;73.78
76746;BME280;65671;49.976;20.038;2023-02-17T11:12:53;98166.25;;;7.90;73.85
76746;BME280;65671;49.976;20.038;2023-02-17T11:15:23;98163.81;;;7.78;73.96
76746;BME280;65671;49.976;20.038;2023-02-17T11:17:50;98164.47;;;7.68;74.14
76746;BME280;65671;49.976;20.038;2023-02-17T11:22:48;98159.75;;;7.58;75.77
76746;BME280;65671;49.976;20.038;2023-02-17T11:25:28;98151.31;;;7.63;75.95
76746;BME280;65671;49.976;20.038;2023-02-17T11:27:59;98141.97;;;7.53;75.97
76746;BME280;65671;49.976;20.038;2023-02-17T11:30:27;98148.38;;;7.42;75.51
76746;BME280;65671;49.976;20.038;2023-02-17T11:32:54;98138.66;;;7.34;75.86
76746;BME280;65671;49.976;20.038;2023-02-17T11:37:47;98129.47;;;7.38;76.11
76746;BME280;65671;49.976;20.038;2023-02-17T11:40:30;98126.66;;;7.27;75.20
76746;BME280;65671;49.976;20.038;2023-02-17T11:43:01;98128.22;;;7.28;75.79
76746;BME280;65671;49.976;20.038;2023-02-17T11:45:39;98135.47;;;7.24;74.45
76746;BME280;65671;49.976;20.038;2023-02-17T11:51:02;98128.91;;;7.22;75.01
76746;BME280;65671;49.976;20.038;2023-02-17T11:56:13;98107.91;;;7.35;73.78
76746;BME280;65671;49.976;20.038;2023-02-17T12:15:25;98083.56;;;7.27;73.56
76746;BME280;65671;49.976;20.038;2023-02-17T12:18:20;98073.06;;;7.19;73.00
76746;BME280;65671;49.976;20.038;2023-02-17T12:21:13;98073.03;;;7.15;73.90
76746;BME280;65671;49.976;20.038;2023-02-17T12:27:18;98071.22;;;7.26;74.26
76746;BME280;65671;49.976;20.038;2023-02-17T12:35:26;98063.38;;;7.48;73.04
76746;BME280;65671;49.976;20.038;2023-02-17T12:38:00;98068.53;;;7.60;73.57
76746;BME280;65671;49.976;20.038;2023-02-17T12:40:37;98067.25;;;7.50;73.08
76746;BME280;65671;49.976;20.038;2023-02-17T12:43:26;98063.47;;;7.55;74.24
76746;BME280;65671;49.976;20.038;2023-02-17T12:45:54;98073.38;;;7.47;73.48
76746;BME280;65671;49.976;20.038;2023-02-17T12:51:35;98063.44;;;7.51;74.51
76746;BME280;65671;49.976;20.038;2023-02-17T12:59:21;98052.56;;;7.44;72.77
76746;BME280;65671;49.976;20.038;2023-02-17T13:02:00;98041.75;;;7.37;72.65
76746;BME280;65671;49.976;20.038;2023-02-17T13:04:28;98047.16;;;7.41;73.76
76746;BME280;65671;49.976;20.038;2023-02-17T13:07:15;98048.25;;;7.36;74.10
76746;BME280;65671;49.976;20.038;2023-02-17T13:09:44;98049.69;;;7.26;74.04
76746;BME280;65671;49.976;20.038;2023-02-17T13:14:56;98053.59;;;7.29;74.51
76746;BME280;65671;49.976;20.038;2023-02-17T13:22:45;98043.13;;;7.24;74.05
76746;BME280;65671;49.976;20.038;2023-02-17T13:25:24;98039.25;;;7.21;74.66
76746;BME280;65671;49.976;20.038;2023-02-17T13:27:50;98032.25;;;7.13;74.52
76746;BME280;65671;49.976;20.038;2023-02-17T13:32:43;98027.50;;;7.03;75.40
76746;BME280;65671;49.976;20.038;2023-02-17T13:40:24;98021.75;;;7.05;74.71
76746;BME280;65671;49.976;20.038;2023-02-17T13:42:50;98007.56;;;7.08;74.93
76746;BME280;65671;49.976;20.038;2023-02-17T13:47:45;98001.44;;;7.11;74.52
76746;BME280;65671;49.976;20.038;2023-02-17T13:50:34;97998.38;;;7.12;73.91
76746;BME280;65671;49.976;20.038;2023-02-17T13:53:02;97997.59;;;7.12;74.27
76746;BME280;65671;49.976;20.038;2023-02-17T13:55:30;97986.06;;;7.11;74.11
76746;BME280;65671;49.976;20.038;2023-02-17T13:57:57;97985.63;;;7.09;74.70
76746;BME280;65671;49.976;20.038;2023-02-17T14:00:26;97980.31;;;7.13;74.28
76746;BME280;65671;49.976;20.038;2023-02-17T14:02:55;97982.25;;;7.16;73.83
76746;BME280;65671;49.976;20.038;2023-02-17T14:08:04;97964.16;;;7.13;74.28
76746;BME280;65671;49.976;20.038;2023-02-17T14:10:31;97962.22;;;7.13;75.21
76746;BME280;65671;49.976;20.038;2023-02-17T14:12:57;97957.59;;;7.10;74.00
76746;BME280;65671;49.976;20.038;2023-02-17T14:15:26;97952.19;;;7.10;74.50
76746;BME280;65671;49.976;20.038;2023-02-17T14:17:52;97946.81;;;7.10;74.87
76746;BME280;65671;49.976;20.038;2023-02-17T14:20:34;97946.81;;;7.10;74.08
76746;BME280;65671;49.976;20.038;2023-02-17T14:23:07;97936.47;;;7.16;74.91
76746;BME280;65671;49.976;20.038;2023-02-17T14:25:36;97938.03;;;7.17;74.86
76746;BME280;65671;49.976;20.038;2023-02-17T14:28:03;97936.13;;;7.21;74.81
76746;BME280;65671;49.976;20.038;2023-02-17T14:30:40;97935.31;;;7.13;75.36
76746;BME280;65671;49.976;20.038;2023-02-17T14:35:56;97919.50;;;7.12;74.68
76746;BME280;65671;49.976;20.038;2023-02-17T14:38:25;97932.97;;;7.12;75.03
76746;BME280;65671;49.976;20.038;2023-02-17T14:40:58;97922.59;;;7.10;75.17
76746;BME280;65671;49.976;20.038;2023-02-17T14:43:25;97913.69;;;7.06;74.47
76746;BME280;65671;49.976;20.038;2023-02-17T14:45:51;97908.34;;;7.10;74.82
76746;BME280;65671;49.976;20.038;2023-02-17T14:48:17;97908.78;;;7.15;74.89
76746;BME280;65671;49.976;20.038;2023-02-17T14:50:43;97902.19;;;7.09;75.24
76746;BME280;65671;49.976;20.038;2023-02-17T14:53:26;97899.50;;;7.09;75.97
76746;BME280;65671;49.976;20.038;2023-02-17T14:58:31;97896.00;;;7.09;74.95
76746;BME280;65671;49.976;20.038;2023-02-17T15:00:58;97884.03;;;6.99;75.50